Lincolnville, KS (66858)

8:31 AM CST on February 12, 2016 (GMT -0600)
Marion | | Change Station
CLOSE
Current Station
Personal Weather Station
Location: Marion, KS
Elevation: 1371 ft
Nearby Weather Stations

Elev 1371 ft 38.35 °N, 97.01 °W | Updated 4 minutes ago

Overcast
Overcast
30.2 °F
Feels Like 23 °F
N
6.8
Wind Variable Wind from West

Today
High -- | Low -- °F
--% Chance of Precip.
Yesterday
High -- | Low -- °F
Precip. -- in
Pressure 30.37 in
Visibility 5.0 miles
Clouds Overcast 600 ft
Windchill 23 °F
Dew Point 26 °F
Humidity 86%
Rainfall 0.00 in
Snow Depth Not available.
7:22 AM 6:02 PM
Waxing Crescent, 21% visible
METAR KEWK 121415Z AUTO 02015KT 5SM OVC006 M02/M04 A3037 RMK AO1
Pressure 30.37 in
Visibility 5.0 miles
Clouds Overcast 600 ft
Windchill 23 °F
Dew Point 26 °F
Humidity 86%
Rainfall 0.00 in
Snow Depth Not available.
7:22 AM 6:02 PM
Waxing Crescent, 21% visible
METAR KEWK 121415Z AUTO 02015KT 5SM OVC006 M02/M04 A3037 RMK AO1

10-Day Weather Forecast

Almanac

Astronomy

Feb. 12, 2016 Rise Set
Actual Time
Civil Twilight
Nautical Twilight
Astronomical Twilight
Moon
Length of Visible Light
Length of Day
Tomorrow will be .
, % of the Moon is Illuminated

Today's Extremes

State Highs State Lows

Community

WunderPhotos

Upload Photos

1,892,316 photos uploaded!

WunderBlog® & News

Nearby

Air Quality

  Air Quality AQ Index Pollutant
Not available.

Snow Depth

Station Depth Elevation

Earthquake Activity

City Distance Mag. Time & Date
Minimum magnitude displayed is 2.5.

Coastal Water Temperatures

Place Temperature

Stations

Nearby Weather Stations

Station Location Temp. Windchill Dew Point Humidity Wind Precip. Elev Updated Type
                   

Watches & Warnings

There are currently no watches in effect.